sensor_id;sensor_type;location;lat;lon;timestamp;pressure;altitude;pressure_sealevel;temperature;humidity
55301;BME280;58302;51.446;-2.000;2022-10-31T00:00:22;100711.16;;;10.80;100.00
55301;BME280;58302;51.446;-2.000;2022-10-31T00:02:48;100717.16;;;10.88;100.00
55301;BME280;58302;51.446;-2.000;2022-10-31T00:05:14;100709.34;;;10.96;100.00
55301;BME280;58302;51.446;-2.000;2022-10-31T00:07:40;100721.13;;;11.07;100.00
55301;BME280;58302;51.446;-2.000;2022-10-31T00:10:06;100717.34;;;11.13;100.00
55301;BME280;58302;51.446;-2.000;2022-10-31T00:12:32;100718.75;;;11.16;100.00
55301;BME280;58302;51.446;-2.000;2022-10-31T00:14:58;100719.31;;;11.23;100.00
55301;BME280;58302;51.446;-2.000;2022-10-31T00:17:24;100723.44;;;11.30;100.00
55301;BME280;58302;51.446;-2.000;2022-10-31T00:19:50;100716.91;;;11.31;100.00
55301;BME280;58302;51.446;-2.000;2022-10-31T00:22:16;100711.47;;;11.31;100.00
55301;BME280;58302;51.446;-2.000;2022-10-31T00:24:42;100698.44;;;11.33;100.00
55301;BME280;58302;51.446;-2.000;2022-10-31T00:27:08;100698.97;;;11.30;100.00
55301;BME280;58302;51.446;-2.000;2022-10-31T00:29:34;100709.84;;;11.30;100.00
55301;BME280;58302;51.446;-2.000;2022-10-31T00:32:00;100712.53;;;11.25;100.00
55301;BME280;58302;51.446;-2.000;2022-10-31T00:34:26;100714.97;;;11.22;100.00
55301;BME280;58302;51.446;-2.000;2022-10-31T00:36:52;100704.59;;;11.19;100.00
55301;BME280;58302;51.446;-2.000;2022-10-31T00:39:17;100712.50;;;11.20;100.00
55301;BME280;58302;51.446;-2.000;2022-10-31T00:41:43;100713.03;;;11.17;100.00
55301;BME280;58302;51.446;-2.000;2022-10-31T00:44:09;100696.13;;;11.10;100.00
55301;BME280;58302;51.446;-2.000;2022-10-31T00:46:35;100704.81;;;11.07;100.00
55301;BME280;58302;51.446;-2.000;2022-10-31T00:49:01;100699.06;;;11.03;100.00
55301;BME280;58302;51.446;-2.000;2022-10-31T00:51:27;100697.16;;;10.99;100.00
55301;BME280;58302;51.446;-2.000;2022-10-31T00:53:53;100690.31;;;10.96;100.00
55301;BME280;58302;51.446;-2.000;2022-10-31T00:56:19;100685.38;;;10.88;100.00
55301;BME280;58302;51.446;-2.000;2022-10-31T00:58:45;100689.41;;;10.80;100.00
55301;BME280;58302;51.446;-2.000;2022-10-31T01:01:11;100689.94;;;10.77;100.00
55301;BME280;58302;51.446;-2.000;2022-10-31T01:03:37;100697.28;;;10.82;100.00
55301;BME280;58302;51.446;-2.000;2022-10-31T01:06:05;100694.88;;;10.86;100.00
55301;BME280;58302;51.446;-2.000;2022-10-31T01:08:33;100697.28;;;10.82;100.00
55301;BME280;58302;51.446;-2.000;2022-10-31T01:13:31;100699.13;;;10.76;100.00
55301;BME280;58302;51.446;-2.000;2022-10-31T01:15:58;100697.50;;;10.75;100.00
55301;BME280;58302;51.446;-2.000;2022-10-31T01:18:25;100700.22;;;10.75;100.00
55301;BME280;58302;51.446;-2.000;2022-10-31T01:23:31;100707.28;;;10.71;100.00
55301;BME280;58302;51.446;-2.000;2022-10-31T01:26:09;100694.25;;;10.73;100.00
55301;BME280;58302;51.446;-2.000;2022-10-31T01:28:38;100699.38;;;10.70;100.00
55301;BME280;58302;51.446;-2.000;2022-10-31T01:31:06;100695.28;;;10.67;100.00
55301;BME280;58302;51.446;-2.000;2022-10-31T01:33:33;100700.41;;;10.64;100.00
55301;BME280;58302;51.446;-2.000;2022-10-31T01:35:59;100694.94;;;10.59;100.00
55301;BME280;58302;51.446;-2.000;2022-10-31T01:38:25;100700.09;;;10.55;100.00
55301;BME280;58302;51.446;-2.000;2022-10-31T01:40:51;100700.63;;;10.57;100.00
55301;BME280;58302;51.446;-2.000;2022-10-31T01:43:18;100697.38;;;10.55;100.00
55301;BME280;58302;51.446;-2.000;2022-10-31T01:45:50;100699.47;;;10.48;100.00
55301;BME280;58302;51.446;-2.000;2022-10-31T01:48:20;100698.59;;;10.42;100.00
55301;BME280;58302;51.446;-2.000;2022-10-31T01:50:51;100709.19;;;10.39;100.00
55301;BME280;58302;51.446;-2.000;2022-10-31T01:53:20;100702.06;;;10.38;100.00
55301;BME280;58302;51.446;-2.000;2022-10-31T01:55:46;100701.47;;;10.31;100.00
55301;BME280;58302;51.446;-2.000;2022-10-31T01:58:20;100700.34;;;10.26;100.00
55301;BME280;58302;51.446;-2.000;2022-10-31T02:00:51;100700.97;;;10.34;100.00
55301;BME280;58302;51.446;-2.000;2022-10-31T02:03:18;100704.19;;;10.31;100.00
55301;BME280;58302;51.446;-2.000;2022-10-31T02:05:46;100700.66;;;10.30;100.00
55301;BME280;58302;51.446;-2.000;2022-10-31T02:08:27;100693.31;;;10.31;100.00
55301;BME280;58302;51.446;-2.000;2022-10-31T02:10:54;100698.22;;;10.28;100.00
55301;BME280;58302;51.446;-2.000;2022-10-31T02:13:20;100692.47;;;10.25;100.00
55301;BME280;58302;51.446;-2.000;2022-10-31T02:15:51;100691.28;;;10.21;100.00
55301;BME280;58302;51.446;-2.000;2022-10-31T02:18:18;100691.28;;;10.21;100.00
55301;BME280;58302;51.446;-2.000;2022-10-31T02:20:57;100690.81;;;10.24;100.00
55301;BME280;58302;51.446;-2.000;2022-10-31T02:34:02;100687.19;;;10.40;100.00
55301;BME280;58302;51.446;-2.000;2022-10-31T02:36:41;100688.50;;;10.38;100.00
55301;BME280;58302;51.446;-2.000;2022-10-31T02:39:15;100699.38;;;10.38;100.00
55301;BME280;58302;51.446;-2.000;2022-10-31T02:42:04;100699.72;;;10.46;100.00
55301;BME280;58302;51.446;-2.000;2022-10-31T02:44:37;100692.78;;;10.61;100.00
55301;BME280;58302;51.446;-2.000;2022-10-31T02:47:08;100690.06;;;10.61;100.00
55301;BME280;58302;51.446;-2.000;2022-10-31T02:49:42;100687.56;;;10.54;100.00
55301;BME280;58302;51.446;-2.000;2022-10-31T02:52:35;100688.03;;;10.46;100.00
55301;BME280;58302;51.446;-2.000;2022-10-31T02:58:05;100685.31;;;10.46;100.00
55301;BME280;58302;51.446;-2.000;2022-10-31T03:01:01;100681.38;;;10.64;100.00
55301;BME280;58302;51.446;-2.000;2022-10-31T03:03:36;100671.09;;;10.71;100.00
55301;BME280;58302;51.446;-2.000;2022-10-31T03:06:17;100672.50;;;10.73;100.00
55301;BME280;58302;51.446;-2.000;2022-10-31T03:11:23;100662.78;;;10.82;100.00
55301;BME280;58302;51.446;-2.000;2022-10-31T03:23:59;100650.28;;;10.87;100.00
55301;BME280;58302;51.446;-2.000;2022-10-31T03:26:26;100645.63;;;10.82;100.00
55301;BME280;58302;51.446;-2.000;2022-10-31T03:28:58;100636.66;;;10.81;100.00
55301;BME280;58302;51.446;-2.000;2022-10-31T03:31:29;100650.78;;;10.78;100.00
55301;BME280;58302;51.446;-2.000;2022-10-31T03:33:58;100635.84;;;10.81;100.00
55301;BME280;58302;51.446;-2.000;2022-10-31T03:36:26;100630.38;;;10.76;100.00
55301;BME280;58302;51.446;-2.000;2022-10-31T03:38:56;100630.66;;;10.79;100.00
55301;BME280;58302;51.446;-2.000;2022-10-31T03:41:28;100640.66;;;10.69;100.00
55301;BME280;58302;51.446;-2.000;2022-10-31T03:43:59;100636.00;;;10.64;100.00
55301;BME280;58302;51.446;-2.000;2022-10-31T03:46:27;100638.44;;;10.61;100.00
55301;BME280;58302;51.446;-2.000;2022-10-31T03:48:53;100643.00;;;10.55;100.00
55301;BME280;58302;51.446;-2.000;2022-10-31T03:51:52;100638.94;;;10.58;100.00
55301;BME280;58302;51.446;-2.000;2022-10-31T03:54:28;100642.44;;;10.53;100.00
55301;BME280;58302;51.446;-2.000;2022-10-31T03:59:26;100640.28;;;10.55;100.00
55301;BME280;58302;51.446;-2.000;2022-10-31T04:01:58;100637.00;;;10.53;100.00
55301;BME280;58302;51.446;-2.000;2022-10-31T04:04:26;100634.56;;;10.51;100.00
55301;BME280;58302;51.446;-2.000;2022-10-31T04:06:54;100641.63;;;10.52;100.00
55301;BME280;58302;51.446;-2.000;2022-10-31T04:09:23;100646.56;;;10.55;100.00
55301;BME280;58302;51.446;-2.000;2022-10-31T04:11:53;100638.69;;;10.59;100.00
55301;BME280;58302;51.446;-2.000;2022-10-31T04:14:22;100637.94;;;10.69;100.00
55301;BME280;58302;51.446;-2.000;2022-10-31T04:16:49;100633.91;;;10.76;100.00
55301;BME280;58302;51.446;-2.000;2022-10-31T04:19:15;100636.13;;;10.85;100.00
55301;BME280;58302;51.446;-2.000;2022-10-31T04:21:41;100633.47;;;10.90;100.00
55301;BME280;58302;51.446;-2.000;2022-10-31T04:24:11;100626.63;;;10.87;100.00
55301;BME280;58302;51.446;-2.000;2022-10-31T04:26:37;100615.16;;;10.80;100.00
55301;BME280;58302;51.446;-2.000;2022-10-31T04:29:03;100616.78;;;10.76;100.00
55301;BME280;58302;51.446;-2.000;2022-10-31T04:31:29;100612.72;;;10.78;100.00
55301;BME280;58302;51.446;-2.000;2022-10-31T04:33:55;100625.75;;;10.76;100.00
55301;BME280;58302;51.446;-2.000;2022-10-31T04:36:21;100620.31;;;10.76;100.00
55301;BME280;58302;51.446;-2.000;2022-10-31T04:38:47;100622.78;;;10.78;100.00
55301;BME280;58302;51.446;-2.000;2022-10-31T04:41:13;100630.16;;;10.88;100.00
55301;BME280;58302;51.446;-2.000;2022-10-31T04:43:39;100631.84;;;10.94;100.00
55301;BME280;58302;51.446;-2.000;2022-10-31T04:46:05;100627.56;;;11.08;100.00
55301;BME280;58302;51.446;-2.000;2022-10-31T04:48:31;100626.25;;;11.16;100.00
55301;BME280;58302;51.446;-2.000;2022-10-31T04:51:00;100629.84;;;11.26;100.00
55301;BME280;58302;51.446;-2.000;2022-10-31T04:53:27;100628.22;;;11.30;100.00
55301;BME280;58302;51.446;-2.000;2022-10-31T04:55:53;100623.88;;;11.34;100.00
55301;BME280;58302;51.446;-2.000;2022-10-31T04:58:19;100619.56;;;11.44;100.00
55301;BME280;58302;51.446;-2.000;2022-10-31T05:00:45;100625.31;;;11.52;100.00
55301;BME280;58302;51.446;-2.000;2022-10-31T05:03:11;100618.25;;;11.56;100.00
55301;BME280;58302;51.446;-2.000;2022-10-31T05:05:37;100615.25;;;11.63;100.00
55301;BME280;58302;51.446;-2.000;2022-10-31T05:08:03;100612.53;;;11.63;100.00
55301;BME280;58302;51.446;-2.000;2022-10-31T05:10:29;100621.00;;;11.67;100.00
55301;BME280;58302;51.446;-2.000;2022-10-31T05:12:59;100625.63;;;11.66;100.00
55301;BME280;58302;51.446;-2.000;2022-10-31T05:15:26;100619.59;;;11.59;100.00
55301;BME280;58302;51.446;-2.000;2022-10-31T05:17:53;100619.31;;;11.50;100.00
55301;BME280;58302;51.446;-2.000;2022-10-31T05:20:20;100616.31;;;11.47;100.00
55301;BME280;58302;51.446;-2.000;2022-10-31T05:22:49;100605.97;;;11.44;100.00
55301;BME280;58302;51.446;-2.000;2022-10-31T05:25:15;100591.56;;;11.48;100.00
55301;BME280;58302;51.446;-2.000;2022-10-31T05:27:44;100602.16;;;11.45;100.00
55301;BME280;58302;51.446;-2.000;2022-10-31T05:30:12;100601.03;;;11.41;100.00
55301;BME280;58302;51.446;-2.000;2022-10-31T05:32:43;100602.41;;;11.38;100.00
55301;BME280;58302;51.446;-2.000;2022-10-31T05:35:12;100597.75;;;11.33;100.00
55301;BME280;58302;51.446;-2.000;2022-10-31T05:37:39;100598.03;;;11.32;100.00
55301;BME280;58302;51.446;-2.000;2022-10-31T05:40:07;100593.69;;;11.36;100.00
55301;BME280;58302;51.446;-2.000;2022-10-31T05:42:33;100590.97;;;11.36;100.00
55301;BME280;58302;51.446;-2.000;2022-10-31T05:44:59;100595.88;;;11.39;100.00
55301;BME280;58302;51.446;-2.000;2022-10-31T05:47:25;100596.41;;;11.41;100.00
55301;BME280;58302;51.446;-2.000;2022-10-31T05:49:51;100603.25;;;11.44;100.00
55301;BME280;58302;51.446;-2.000;2022-10-31T05:52:17;100594.81;;;11.50;100.00
55301;BME280;58302;51.446;-2.000;2022-10-31T05:54:43;100584.50;;;11.57;100.00
55301;BME280;58302;51.446;-2.000;2022-10-31T05:57:09;100577.13;;;11.53;100.00
55301;BME280;58302;51.446;-2.000;2022-10-31T05:59:35;100577.09;;;11.48;100.00
55301;BME280;58302;51.446;-2.000;2022-10-31T06:02:01;100573.06;;;11.50;100.00
55301;BME280;58302;51.446;-2.000;2022-10-31T06:04:27;100569.50;;;11.50;100.00
55301;BME280;58302;51.446;-2.000;2022-10-31T06:06:53;100567.34;;;11.52;100.00
55301;BME280;58302;51.446;-2.000;2022-10-31T06:09:19;100576.06;;;11.54;100.00
55301;BME280;58302;51.446;-2.000;2022-10-31T06:11:45;100573.88;;;11.51;100.00
55301;BME280;58302;51.446;-2.000;2022-10-31T06:14:11;100566.22;;;11.48;100.00
55301;BME280;58302;51.446;-2.000;2022-10-31T06:16:37;100575.22;;;11.43;100.00
55301;BME280;58302;51.446;-2.000;2022-10-31T06:19:03;100568.94;;;11.38;100.00
55301;BME280;58302;51.446;-2.000;2022-10-31T06:21:29;100561.00;;;11.31;100.00
55301;BME280;58302;51.446;-2.000;2022-10-31T06:23:55;100565.06;;;11.23;100.00
55301;BME280;58302;51.446;-2.000;2022-10-31T06:26:21;100558.50;;;11.14;100.00
55301;BME280;58302;51.446;-2.000;2022-10-31T06:28:47;100562.88;;;11.10;100.00
55301;BME280;58302;51.446;-2.000;2022-10-31T06:31:13;100568.00;;;11.06;100.00
55301;BME280;58302;51.446;-2.000;2022-10-31T06:33:41;100550.88;;;11.06;100.00
55301;BME280;58302;51.446;-2.000;2022-10-31T06:36:07;100556.31;;;11.06;100.00
55301;BME280;58302;51.446;-2.000;2022-10-31T06:38:33;100554.66;;;11.00;100.00
55301;BME280;58302;51.446;-2.000;2022-10-31T06:41:03;100555.16;;;10.97;100.00
55301;BME280;58302;51.446;-2.000;2022-10-31T06:43:30;100555.41;;;10.90;100.00
55301;BME280;58302;51.446;-2.000;2022-10-31T06:45:56;100551.03;;;10.84;100.00
55301;BME280;58302;51.446;-2.000;2022-10-31T06:48:23;100569.81;;;10.86;100.00
55301;BME280;58302;51.446;-2.000;2022-10-31T06:50:49;100561.13;;;10.89;100.00
55301;BME280;58302;51.446;-2.000;2022-10-31T06:53:15;100567.13;;;10.96;100.00
55301;BME280;58302;51.446;-2.000;2022-10-31T06:55:42;100564.75;;;11.04;100.00
55301;BME280;58302;51.446;-2.000;2022-10-31T06:58:09;100557.91;;;11.02;100.00
55301;BME280;58302;51.446;-2.000;2022-10-31T07:00:35;100554.09;;;10.98;100.00
55301;BME280;58302;51.446;-2.000;2022-10-31T07:03:03;100554.88;;;10.88;100.00
55301;BME280;58302;51.446;-2.000;2022-10-31T07:05:30;100549.38;;;10.78;100.00
55301;BME280;58302;51.446;-2.000;2022-10-31T07:07:59;100551.25;;;10.72;100.00
55301;BME280;58302;51.446;-2.000;2022-10-31T07:10:27;100553.97;;;10.72;100.00
55301;BME280;58302;51.446;-2.000;2022-10-31T07:12:58;100555.81;;;10.62;100.00
55301;BME280;58302;51.446;-2.000;2022-10-31T07:15:28;100540.84;;;10.59;100.00
55301;BME280;58302;51.446;-2.000;2022-10-31T07:17:59;100535.69;;;10.58;100.00
55301;BME280;58302;51.446;-2.000;2022-10-31T07:20:25;100538.97;;;10.65;100.00
55301;BME280;58302;51.446;-2.000;2022-10-31T07:22:51;100544.16;;;10.66;100.00
55301;BME280;58302;51.446;-2.000;2022-10-31T07:25:17;100546.09;;;10.76;100.00
55301;BME280;58302;51.446;-2.000;2022-10-31T07:27:44;100531.97;;;10.79;100.00
55301;BME280;58302;51.446;-2.000;2022-10-31T07:30:11;100543.16;;;10.82;100.00
55301;BME280;58302;51.446;-2.000;2022-10-31T07:32:43;100545.34;;;10.86;100.00
55301;BME280;58302;51.446;-2.000;2022-10-31T07:35:12;100547.00;;;10.92;100.00
55301;BME280;58302;51.446;-2.000;2022-10-31T07:37:38;100540.78;;;11.01;100.00
55301;BME280;58302;51.446;-2.000;2022-10-31T07:40:05;100533.44;;;11.02;100.00
55301;BME280;58302;51.446;-2.000;2022-10-31T07:42:42;100539.19;;;11.05;100.00
55301;BME280;58302;51.446;-2.000;2022-10-31T07:45:11;100539.19;;;11.05;100.00
55301;BME280;58302;51.446;-2.000;2022-10-31T07:50:09;100531.91;;;11.26;100.00
55301;BME280;58302;51.446;-2.000;2022-10-31T07:52:36;100527.56;;;11.35;100.00
55301;BME280;58302;51.446;-2.000;2022-10-31T07:55:03;100528.13;;;11.43;100.00
55301;BME280;58302;51.446;-2.000;2022-10-31T07:57:29;100528.97;;;11.48;100.00
55301;BME280;58302;51.446;-2.000;2022-10-31T07:59:55;100536.31;;;11.58;100.00
55301;BME280;58302;51.446;-2.000;2022-10-31T08:02:21;100533.59;;;11.68;100.00
55301;BME280;58302;51.446;-2.000;2022-10-31T08:04:47;100541.00;;;11.83;100.00
55301;BME280;58302;51.446;-2.000;2022-10-31T08:07:13;100541.84;;;11.94;100.00
55301;BME280;58302;51.446;-2.000;2022-10-31T08:09:39;100524.41;;;12.05;100.00
55301;BME280;58302;51.446;-2.000;2022-10-31T08:12:05;100535.53;;;12.39;100.00
55301;BME280;58302;51.446;-2.000;2022-10-31T08:14:31;100532.47;;;12.66;100.00
55301;BME280;58302;51.446;-2.000;2022-10-31T08:16:57;100520.41;;;12.87;100.00
55301;BME280;58302;51.446;-2.000;2022-10-31T08:19:23;100505.63;;;12.99;100.00
55301;BME280;58302;51.446;-2.000;2022-10-31T08:21:53;100500.63;;;13.16;100.00
55301;BME280;58302;51.446;-2.000;2022-10-31T08:24:21;100491.22;;;13.42;100.00
55301;BME280;58302;51.446;-2.000;2022-10-31T08:26:47;100489.91;;;13.74;100.00
55301;BME280;58302;51.446;-2.000;2022-10-31T08:29:13;100482.69;;;13.88;100.00
55301;BME280;58302;51.446;-2.000;2022-10-31T08:31:41;100485.97;;;14.19;100.00
55301;BME280;58302;51.446;-2.000;2022-10-31T08:34:07;100486.25;;;14.47;100.00
55301;BME280;58302;51.446;-2.000;2022-10-31T08:36:33;100474.34;;;14.62;100.00
55301;BME280;58302;51.446;-2.000;2022-10-31T08:38:59;100467.63;;;14.73;100.00
55301;BME280;58302;51.446;-2.000;2022-10-31T08:41:25;100464.00;;;14.77;100.00
55301;BME280;58302;51.446;-2.000;2022-10-31T08:43:51;100466.66;;;15.07;100.00
55301;BME280;58302;51.446;-2.000;2022-10-31T08:46:17;100465.09;;;15.19;100.00
55301;BME280;58302;51.446;-2.000;2022-10-31T08:48:43;100467.75;;;15.24;100.00
55301;BME280;58302;51.446;-2.000;2022-10-31T08:51:10;100446.81;;;15.15;100.00
55301;BME280;58302;51.446;-2.000;2022-10-31T08:53:36;100452.50;;;15.18;100.00
55301;BME280;58302;51.446;-2.000;2022-10-31T08:56:02;100443.41;;;15.04;100.00
55301;BME280;58302;51.446;-2.000;2022-10-31T08:58:28;100450.84;;;14.80;100.00
55301;BME280;58302;51.446;-2.000;2022-10-31T09:00:59;100442.50;;;14.47;100.00
55301;BME280;58302;51.446;-2.000;2022-10-31T09:03:27;100446.81;;;14.24;100.00
55301;BME280;58302;51.446;-2.000;2022-10-31T09:05:59;100434.78;;;14.25;100.00
55301;BME280;58302;51.446;-2.000;2022-10-31T09:08:25;100435.91;;;14.48;100.00
55301;BME280;58302;51.446;-2.000;2022-10-31T09:10:51;100438.63;;;14.72;100.00
55301;BME280;58302;51.446;-2.000;2022-10-31T09:13:19;100440.97;;;14.84;100.00
55301;BME280;58302;51.446;-2.000;2022-10-31T09:15:46;100440.72;;;14.80;100.00
55301;BME280;58302;51.446;-2.000;2022-10-31T09:18:14;100424.38;;;14.94;100.00
55301;BME280;58302;51.446;-2.000;2022-10-31T09:20:41;100427.59;;;15.01;100.00
55301;BME280;58302;51.446;-2.000;2022-10-31T09:23:16;100426.31;;;15.12;100.00
55301;BME280;58302;51.446;-2.000;2022-10-31T09:25:43;100411.03;;;15.11;100.00
55301;BME280;58302;51.446;-2.000;2022-10-31T09:28:15;100410.09;;;15.16;100.00
55301;BME280;58302;51.446;-2.000;2022-10-31T09:30:41;100404.31;;;15.36;100.00
55301;BME280;58302;51.446;-2.000;2022-10-31T09:33:11;100406.44;;;15.58;100.00
55301;BME280;58302;51.446;-2.000;2022-10-31T09:35:37;100402.25;;;15.66;100.00
55301;BME280;58302;51.446;-2.000;2022-10-31T09:38:10;100402.25;;;15.79;100.00
55301;BME280;58302;51.446;-2.000;2022-10-31T09:40:40;100394.03;;;15.79;100.00
55301;BME280;58302;51.446;-2.000;2022-10-31T09:43:25;100395.78;;;15.89;100.00
55301;BME280;58302;51.446;-2.000;2022-10-31T09:46:16;100393.78;;;16.08;100.00
55301;BME280;58302;51.446;-2.000;2022-10-31T09:52:01;100368.63;;;15.41;100.00
55301;BME280;58302;51.446;-2.000;2022-10-31T09:54:43;100380.38;;;15.28;100.00
55301;BME280;58302;51.446;-2.000;2022-10-31T09:57:14;100379.13;;;15.01;100.00
55301;BME280;58302;51.446;-2.000;2022-10-31T09:59:41;100371.28;;;14.95;100.00
55301;BME280;58302;51.446;-2.000;2022-10-31T10:04:53;100354.56;;;14.77;100.00
55301;BME280;58302;51.446;-2.000;2022-10-31T10:07:35;100362.94;;;14.67;100.00
55301;BME280;58302;51.446;-2.000;2022-10-31T10:27:17;100336.66;;;15.04;100.00
55301;BME280;58302;51.446;-2.000;2022-10-31T10:32:27;100340.53;;;14.84;100.00
55301;BME280;58302;51.446;-2.000;2022-10-31T10:37:41;100333.28;;;14.74;100.00
55301;BME280;58302;51.446;-2.000;2022-10-31T10:40:20;100332.47;;;14.74;100.00
55301;BME280;58302;51.446;-2.000;2022-10-31T10:43:01;100335.56;;;14.86;100.00
55301;BME280;58302;51.446;-2.000;2022-10-31T10:48:55;100333.91;;;15.04;100.00
55301;BME280;58302;51.446;-2.000;2022-10-31T10:59:27;100311.09;;;16.29;100.00
55301;BME280;58302;51.446;-2.000;2022-10-31T11:01:55;100309.63;;;16.95;100.00
55301;BME280;58302;51.446;-2.000;2022-10-31T11:07:08;100309.50;;;17.23;100.00
55301;BME280;58302;51.446;-2.000;2022-10-31T11:09:35;100311.44;;;16.64;100.00
55301;BME280;58302;51.446;-2.000;2022-10-31T11:12:19;100318.84;;;15.99;100.00
55301;BME280;58302;51.446;-2.000;2022-10-31T11:14:50;100315.22;;;15.58;100.00
55301;BME280;58302;51.446;-2.000;2022-10-31T11:20:00;100316.28;;;15.29;100.00
55301;BME280;58302;51.446;-2.000;2022-10-31T11:22:27;100310.19;;;15.32;100.00
55301;BME280;58302;51.446;-2.000;2022-10-31T11:24:53;100302.00;;;15.46;100.00
55301;BME280;58302;51.446;-2.000;2022-10-31T11:27:21;100290.41;;;15.68;100.00
55301;BME280;58302;51.446;-2.000;2022-10-31T11:30:03;100298.22;;;15.74;100.00
55301;BME280;58302;51.446;-2.000;2022-10-31T11:32:33;100273.16;;;15.67;100.00
55301;BME280;58302;51.446;-2.000;2022-10-31T11:35:08;100278.22;;;15.74;100.00
55301;BME280;58302;51.446;-2.000;2022-10-31T11:37:58;100274.38;;;15.75;100.00
55301;BME280;58302;51.446;-2.000;2022-10-31T11:40:27;100268.50;;;15.68;100.00
55301;BME280;58302;51.446;-2.000;2022-10-31T11:43:16;100269.91;;;15.79;100.00
55301;BME280;58302;51.446;-2.000;2022-10-31T11:45:46;100262.59;;;16.02;100.00
55301;BME280;58302;51.446;-2.000;2022-10-31T11:48:17;100238.13;;;16.05;100.00
55301;BME280;58302;51.446;-2.000;2022-10-31T11:50:56;100245.94;;;15.98;100.00
55301;BME280;58302;51.446;-2.000;2022-10-31T11:53:28;100228.88;;;16.01;100.00
55301;BME280;58302;51.446;-2.000;2022-10-31T11:56:19;100221.56;;;16.11;100.00
55301;BME280;58302;51.446;-2.000;2022-10-31T11:59:01;100208.78;;;16.06;100.00
55301;BME280;58302;51.446;-2.000;2022-10-31T12:01:29;100206.75;;;16.12;100.00
55301;BME280;58302;51.446;-2.000;2022-10-31T12:07:26;100180.06;;;16.26;100.00
55301;BME280;58302;51.446;-2.000;2022-10-31T12:09:52;100184.34;;;16.32;100.00
55301;BME280;58302;51.446;-2.000;2022-10-31T12:15:38;100171.00;;;16.39;100.00
55301;BME280;58302;51.446;-2.000;2022-10-31T12:29:43;100125.78;;;17.12;100.00
55301;BME280;58302;51.446;-2.000;2022-10-31T12:38:34;100124.56;;;17.36;100.00
55301;BME280;58302;51.446;-2.000;2022-10-31T12:41:19;100119.44;;;17.52;100.00
55301;BME280;58302;51.446;-2.000;2022-10-31T12:55:21;100075.53;;;18.30;100.00
55301;BME280;58302;51.446;-2.000;2022-10-31T12:57:56;100065.34;;;18.13;100.00
55301;BME280;58302;51.446;-2.000;2022-10-31T13:00:25;100059.38;;;18.02;100.00
55301;BME280;58302;51.446;-2.000;2022-10-31T13:03:17;100060.16;;;18.20;100.00
55301;BME280;58302;51.446;-2.000;2022-10-31T13:05:48;100045.81;;;17.97;100.00
55301;BME280;58302;51.446;-2.000;2022-10-31T13:10:49;100036.00;;;18.34;100.00
55301;BME280;58302;51.446;-2.000;2022-10-31T13:13:21;100021.16;;;18.82;100.00
55301;BME280;58302;51.446;-2.000;2022-10-31T13:15:56;100021.00;;;18.79;100.00
55301;BME280;58302;51.446;-2.000;2022-10-31T13:18:33;100015.88;;;19.07;100.00
55301;BME280;58302;51.446;-2.000;2022-10-31T13:21:05;99999.88;;;19.21;100.00
55301;BME280;58302;51.446;-2.000;2022-10-31T13:23:37;100002.78;;;19.25;100.00
55301;BME280;58302;51.446;-2.000;2022-10-31T13:26:32;99998.13;;;18.87;100.00
55301;BME280;58302;51.446;-2.000;2022-10-31T13:31:58;99989.53;;;17.77;100.00
55301;BME280;58302;51.446;-2.000;2022-10-31T13:34:31;99980.94;;;17.87;100.00
55301;BME280;58302;51.446;-2.000;2022-10-31T13:37:06;99989.00;;;18.19;100.00
55301;BME280;58302;51.446;-2.000;2022-10-31T13:40:04;99978.94;;;18.23;100.00
55301;BME280;58302;51.446;-2.000;2022-10-31T13:45:22;99966.69;;;17.68;100.00
55301;BME280;58302;51.446;-2.000;2022-10-31T13:50:42;99945.97;;;17.01;100.00
55301;BME280;58302;51.446;-2.000;2022-10-31T13:55:46;99944.50;;;16.78;100.00
55301;BME280;58302;51.446;-2.000;2022-10-31T13:58:29;99941.47;;;16.48;100.00
55301;BME280;58302;51.446;-2.000;2022-10-31T14:01:18;99939.06;;;16.16;100.00
55301;BME280;58302;51.446;-2.000;2022-10-31T14:03:47;99932.44;;;15.86;100.00
55301;BME280;58302;51.446;-2.000;2022-10-31T14:06:17;99945.22;;;15.68;100.00
55301;BME280;58302;51.446;-2.000;2022-10-31T14:08:49;99938.47;;;15.51;100.00
55301;BME280;58302;51.446;-2.000;2022-10-31T14:11:26;99918.84;;;15.36;100.00
55301;BME280;58302;51.446;-2.000;2022-10-31T14:13:55;99929.91;;;15.31;100.00
55301;BME280;58302;51.446;-2.000;2022-10-31T14:16:31;99923.25;;;15.23;100.00
55301;BME280;58302;51.446;-2.000;2022-10-31T14:19:06;99917.19;;;15.12;100.00
55301;BME280;58302;51.446;-2.000;2022-10-31T14:21:49;99901.91;;;15.11;100.00
55301;BME280;58302;51.446;-2.000;2022-10-31T14:29:45;99894.63;;;14.93;100.00
55301;BME280;58302;51.446;-2.000;2022-10-31T14:34:41;99873.59;;;14.80;100.00
55301;BME280;58302;51.446;-2.000;2022-10-31T14:40:24;99863.78;;;14.65;100.00
55301;BME280;58302;51.446;-2.000;2022-10-31T14:51:41;99826.25;;;14.57;100.00
55301;BME280;58302;51.446;-2.000;2022-10-31T14:54:16;99822.81;;;14.51;100.00
55301;BME280;58302;51.446;-2.000;2022-10-31T14:56:50;99820.25;;;14.41;100.00
55301;BME280;58302;51.446;-2.000;2022-10-31T14:59:28;99809.13;;;14.37;100.00
55301;BME280;58302;51.446;-2.000;2022-10-31T15:02:18;99806.53;;;14.18;100.00
55301;BME280;58302;51.446;-2.000;2022-10-31T15:04:47;99806.81;;;14.03;100.00
55301;BME280;58302;51.446;-2.000;2022-10-31T15:07:20;99797.63;;;13.85;100.00
55301;BME280;58302;51.446;-2.000;2022-10-31T15:09:58;99795.41;;;13.74;100.00
55301;BME280;58302;51.446;-2.000;2022-10-31T15:12:28;99789.59;;;13.61;100.00
55301;BME280;58302;51.446;-2.000;2022-10-31T15:14:55;99788.97;;;13.51;100.00